Time;durP1;ratioP1;P1;durP2;ratioP2;P2;SDS_P1;SDS_P2;PMS_P1;PMS_P2;Temp;Humidity;BMP_temperature;BMP_pressure;BME280_temperature;BME280_humidity;BME280_pressure;Samples;Min_cycle;Max_cycle;Signal;HPM_P1;HPM_P2
2022/09/10 00:01:58;;;;;;;1.33;0.80;;;12.20;99.90;;;;;;5033701;28;20106;-71
2022/09/10 00:04:24;;;;;;;2.15;0.90;;;12.20;99.90;;;;;;5033796;28;20056;-71
2022/09/10 00:06:49;;;;;;;2.03;1.05;;;12.20;99.90;;;;;;5034998;28;20053;-71
2022/09/10 00:09:15;;;;;;;2.25;1.00;;;12.20;99.90;;;;;;5035137;28;20428;-70
2022/09/10 00:11:41;;;;;;;3.85;0.90;;;12.20;99.90;;;;;;5034816;28;20026;-70
2022/09/10 00:14:14;;;;;;;1.52;0.70;;;12.30;99.90;;;;;;5035143;28;20053;-71
2022/09/10 00:16:39;;;;;;;3.38;1.10;;;12.20;99.90;;;;;;5035399;28;20050;-71
2022/09/10 00:19:05;;;;;;;1.83;0.90;;;12.20;99.90;;;;;;5033381;28;20029;-71
2022/09/10 00:21:31;;;;;;;2.30;0.80;;;12.20;99.90;;;;;;5033832;28;20036;-71
2022/09/10 00:23:57;;;;;;;2.08;0.60;;;12.20;99.90;;;;;;5034731;28;20403;-71
2022/09/10 00:26:26;;;;;;;1.48;0.70;;;12.20;99.90;;;;;;5034870;28;20037;-71
2022/09/10 00:28:54;;;;;;;1.70;0.73;;;12.20;99.90;;;;;;5034505;28;20022;-71
2022/09/10 00:31:21;;;;;;;2.40;0.70;;;12.20;99.90;;;;;;5034570;28;20025;-71
2022/09/10 00:33:49;;;;;;;1.17;0.70;;;12.20;99.90;;;;;;5034508;28;20021;-71
2022/09/10 00:36:18;;;;;;;1.45;0.68;;;12.10;99.90;;;;;;5033143;28;20026;-71
2022/09/10 00:38:44;;;;;;;1.88;0.80;;;12.10;99.90;;;;;;5034682;28;20529;-72
2022/09/10 00:41:11;;;;;;;3.13;0.70;;;12.00;99.90;;;;;;5034537;28;20029;-71
2022/09/10 00:43:55;;;;;;;1.27;0.68;;;11.90;99.90;;;;;;5034310;28;20072;-72
2022/09/10 00:46:32;;;;;;;1.23;0.60;;;12.00;99.90;;;;;;5034557;28;20033;-72
2022/09/10 00:49:01;;;;;;;1.17;0.70;;;11.90;99.90;;;;;;5034105;28;20418;-72
2022/09/10 00:51:29;;;;;;;1.38;0.70;;;11.80;99.90;;;;;;5034209;28;20021;-72
2022/09/10 00:53:57;;;;;;;0.40;0.32;;;11.80;99.90;;;;;;5032897;28;20482;-72
2022/09/10 00:56:22;;;;;;;1.85;0.70;;;11.90;99.90;;;;;;5034044;28;20028;-72
2022/09/10 00:58:48;;;;;;;2.78;0.80;;;11.90;99.90;;;;;;5034092;28;20029;-71
2022/09/10 01:01:17;;;;;;;1.15;0.75;;;11.90;99.90;;;;;;5032584;28;20401;-71
2022/09/10 01:03:43;;;;;;;1.83;0.70;;;11.90;99.90;;;;;;5034011;28;20539;-72
2022/09/10 01:06:10;;;;;;;1.95;0.68;;;11.90;99.90;;;;;;5033901;28;20033;-72
2022/09/10 01:08:36;;;;;;;3.70;0.90;;;11.90;99.90;;;;;;5035064;28;20034;-71
2022/09/10 01:11:23;;;;;;;1.27;0.70;;;11.90;99.90;;;;;;5032961;28;20500;-72
2022/09/10 01:14:22;;;;;;;1.83;0.70;;;11.90;99.90;;;;;;5032563;28;20072;-73
2022/09/10 01:17:02;;;;;;;0.90;0.50;;;11.80;99.90;;;;;;5034551;28;20350;-73
2022/09/10 01:19:42;;;;;;;1.85;0.52;;;11.80;99.90;;;;;;5033713;28;20051;-73
2022/09/10 01:22:56;;;;;;;1.33;0.60;;;11.70;99.90;;;;;;5032373;28;20013;-73
2022/09/10 01:25:40;;;;;;;1.23;0.60;;;11.70;99.90;;;;;;5032066;28;20028;-73
2022/09/10 01:28:11;;;;;;;1.15;0.60;;;11.70;99.90;;;;;;5033304;28;20556;-72
2022/09/10 01:30:42;;;;;;;;;;;11.60;99.90;;;;;;5034391;28;20462;-72
2022/09/10 01:33:19;;;;;;;1.48;0.70;;;11.60;99.90;;;;;;5033657;28;20452;-73
2022/09/10 01:35:51;;;;;;;1.67;0.50;;;11.60;99.90;;;;;;5033733;28;20389;-72
2022/09/10 01:38:26;;;;;;;1.50;0.60;;;11.50;99.90;;;;;;5033484;28;20100;-72
2022/09/10 01:40:54;;;;;;;0.88;0.57;;;11.40;99.90;;;;;;5033694;28;20437;-72
2022/09/10 01:43:21;;;;;;;1.58;0.60;;;11.30;99.90;;;;;;5033393;28;20049;-73
2022/09/10 01:45:50;;;;;;;1.05;0.60;;;11.30;99.90;;;;;;5033627;28;20053;-73
2022/09/10 01:48:19;;;;;;;2.55;0.65;;;11.30;99.90;;;;;;5033563;28;20029;-72
2022/09/10 01:50:48;;;;;;;1.73;0.60;;;11.30;99.90;;;;;;5033193;28;20060;-73
2022/09/10 01:53:44;;;;;;;1.55;0.95;;;11.30;99.90;;;;;;5031962;28;20079;-73
2022/09/10 01:56:34;;;;;;;1.88;0.77;;;11.20;99.90;;;;;;5033745;28;20488;-73
2022/09/10 01:59:09;;;;;;;2.72;0.95;;;11.20;99.90;;;;;;5033449;28;20465;-73
2022/09/10 02:01:46;;;;;;;1.33;0.70;;;11.30;99.90;;;;;;5032937;28;20429;-73
2022/09/10 02:04:13;;;;;;;1.70;0.80;;;11.30;99.90;;;;;;5033399;28;20032;-73
2022/09/10 02:06:41;;;;;;;2.92;0.70;;;11.30;99.90;;;;;;5033337;28;20033;-73
2022/09/10 02:09:08;;;;;;;2.58;0.80;;;11.40;99.90;;;;;;5032983;28;20025;-73
2022/09/10 02:11:46;;;;;;;1.00;0.60;;;11.40;99.90;;;;;;5032962;28;20439;-73
2022/09/10 02:14:13;;;;;;;0.88;0.50;;;11.40;99.90;;;;;;5033066;28;20021;-73
2022/09/10 02:16:43;;;;;;;1.48;0.70;;;11.50;99.90;;;;;;5032360;28;20030;-73
2022/09/10 02:19:10;;;;;;;2.88;0.60;;;11.50;99.90;;;;;;5033031;28;20030;-73
2022/09/10 02:21:36;;;;;;;0.88;0.60;;;11.50;99.90;;;;;;5031656;28;20060;-73
2022/09/10 02:24:08;;;;;;;1.98;0.60;;;11.50;99.90;;;;;;5032974;28;20061;-73
2022/09/10 02:26:38;;;;;;;1.77;0.63;;;11.60;99.90;;;;;;5031702;28;20071;-74
2022/09/10 02:29:05;;;;;;;1.15;0.70;;;11.60;99.90;;;;;;5032824;28;20029;-73
2022/09/10 02:31:30;;;;;;;1.17;0.65;;;11.60;99.90;;;;;;5033004;28;20458;-73
2022/09/10 02:33:56;;;;;;;2.80;1.10;;;11.50;99.90;;;;;;5032856;28;20029;-73
2022/09/10 02:36:24;;;;;;;1.27;0.70;;;11.50;99.90;;;;;;5031640;28;20490;-73
2022/09/10 02:38:55;;;;;;;1.88;0.88;;;11.50;99.90;;;;;;5032771;28;20025;-74
2022/09/10 02:41:24;;;;;;;1.40;0.80;;;11.50;99.90;;;;;;5032964;28;20386;-74
2022/09/10 02:43:53;;;;;;;2.20;0.90;;;11.50;99.90;;;;;;5034329;28;20037;-74
2022/09/10 02:46:19;;;;;;;1.63;0.75;;;11.50;99.90;;;;;;5036565;28;20036;-74
2022/09/10 02:48:45;;;;;;;1.17;0.77;;;11.50;99.90;;;;;;5035150;28;20412;-74
2022/09/10 02:51:11;;;;;;;1.75;0.80;;;11.50;99.90;;;;;;5036580;28;20041;-74
2022/09/10 02:53:37;;;;;;;1.23;0.73;;;11.50;99.90;;;;;;5036817;28;20040;-72
2022/09/10 02:56:03;;;;;;;1.58;0.90;;;11.50;99.90;;;;;;5036642;28;20026;-73
2022/09/10 02:58:32;;;;;;;1.52;0.80;;;11.50;99.90;;;;;;5036333;28;20034;-73
2022/09/10 03:01:05;;;;;;;2.28;0.88;;;11.50;99.90;;;;;;5036066;28;20021;-74
2022/09/10 03:03:32;;;;;;;1.73;0.90;;;11.50;99.90;;;;;;5036540;28;20116;-73
2022/09/10 03:05:57;;;;;;;2.55;0.80;;;11.50;99.90;;;;;;5035251;28;20036;-74
2022/09/10 03:08:23;;;;;;;2.08;0.93;;;11.50;99.90;;;;;;5036045;28;20034;-73
2022/09/10 03:10:49;;;;;;;2.38;1.00;;;11.50;99.90;;;;;;5036000;28;20029;-74
2022/09/10 03:13:14;;;;;;;2.80;0.70;;;11.50;99.90;;;;;;5036029;28;20034;-74
2022/09/10 03:15:42;;;;;;;2.15;0.70;;;11.50;99.90;;;;;;5035942;28;20026;-74
2022/09/10 03:18:08;;;;;;;1.10;0.68;;;11.50;99.90;;;;;;5035988;28;20033;-74
2022/09/10 03:20:35;;;;;;;2.47;0.60;;;11.50;99.90;;;;;;5036160;28;20076;-74
2022/09/10 03:23:02;;;;;;;1.08;0.55;;;11.50;99.90;;;;;;5035861;28;20049;-73
2022/09/10 03:25:28;;;;;;;1.23;0.57;;;11.50;99.90;;;;;;5036086;28;20116;-73
2022/09/10 03:27:54;;;;;;;0.88;0.50;;;11.50;99.90;;;;;;5035953;28;20033;-73
2022/09/10 03:30:20;;;;;;;1.00;0.50;;;11.50;99.90;;;;;;5035623;28;20032;-73
2022/09/10 03:32:46;;;;;;;0.90;0.60;;;11.50;99.90;;;;;;5035695;28;20025;-73
2022/09/10 03:35:12;;;;;;;1.10;0.63;;;11.50;99.90;;;;;;5035641;28;20385;-73
2022/09/10 03:37:39;;;;;;;1.45;0.50;;;11.40;99.90;;;;;;5035635;28;20025;-73
2022/09/10 03:40:06;;;;;;;1.10;0.50;;;11.50;99.90;;;;;;5035697;28;20038;-73
2022/09/10 03:42:35;;;;;;;2.03;0.60;;;11.50;99.90;;;;;;5035523;28;20116;-74
2022/09/10 03:45:01;;;;;;;2.63;0.70;;;11.50;99.90;;;;;;5035960;28;20036;-73
2022/09/10 03:47:26;;;;;;;2.00;0.70;;;11.50;99.90;;;;;;5035383;28;20029;-73
2022/09/10 03:49:52;;;;;;;1.45;0.73;;;11.50;99.90;;;;;;5035350;28;20100;-73
2022/09/10 03:52:18;;;;;;;3.05;1.08;;;11.50;99.90;;;;;;5035246;28;20478;-73
2022/09/10 03:54:44;;;;;;;3.20;0.95;;;11.40;99.90;;;;;;5035425;28;20056;-74
2022/09/10 03:57:10;;;;;;;3.95;0.95;;;11.40;99.90;;;;;;5035416;28;20171;-74
2022/09/10 03:59:38;;;;;;;1.58;0.90;;;11.40;99.90;;;;;;5035183;28;20104;-74
2022/09/10 04:02:03;;;;;;;2.47;0.77;;;11.40;99.90;;;;;;5035048;28;20459;-74
2022/09/10 04:04:30;;;;;;;1.95;1.02;;;11.40;99.90;;;;;;5035378;28;20104;-73
2022/09/10 04:06:56;;;;;;;2.63;1.70;;;11.40;99.90;;;;;;5033855;28;20044;-73
2022/09/10 04:09:22;;;;;;;3.25;1.80;;;11.40;99.90;;;;;;5034933;28;20076;-74
2022/09/10 04:11:47;;;;;;;2.72;1.63;;;11.40;99.90;;;;;;5035156;28;20024;-74
2022/09/10 04:14:14;;;;;;;4.65;1.60;;;11.30;99.90;;;;;;5035127;28;20025;-74
2022/09/10 04:16:40;;;;;;;3.50;1.83;;;11.30;99.90;;;;;;5034806;28;20057;-74
2022/09/10 04:19:06;;;;;;;3.63;1.90;;;11.30;99.90;;;;;;5035036;28;20063;-74
2022/09/10 04:21:32;;;;;;;4.45;1.95;;;11.30;99.90;;;;;;5034663;28;20025;-74
2022/09/10 04:24:00;;;;;;;3.15;1.50;;;11.30;99.90;;;;;;5034718;28;20036;-74
2022/09/10 04:26:26;;;;;;;7.93;1.90;;;11.30;99.90;;;;;;5034671;28;20026;-74
2022/09/10 04:28:52;;;;;;;2.70;2.15;;;11.30;99.90;;;;;;5035065;28;20069;-74
2022/09/10 04:31:18;;;;;;;3.88;1.70;;;11.30;99.90;;;;;;5034763;28;20421;-74
2022/09/10 04:33:44;;;;;;;3.72;1.50;;;11.30;99.90;;;;;;5034848;28;20060;-74
2022/09/10 04:36:11;;;;;;;5.07;1.65;;;11.20;99.90;;;;;;5034456;28;20482;-74
2022/09/10 04:38:40;;;;;;;2.65;1.55;;;11.20;99.90;;;;;;5034418;28;20052;-74
2022/09/10 04:41:06;;;;;;;2.65;1.90;;;11.20;99.90;;;;;;5034439;28;20528;-73
2022/09/10 04:43:32;;;;;;;2.90;2.10;;;11.10;99.90;;;;;;5034651;28;20025;-74
2022/09/10 04:45:58;;;;;;;4.53;2.70;;;11.10;99.90;;;;;;5034280;28;20033;-73
2022/09/10 04:48:24;;;;;;;3.80;2.65;;;11.10;99.90;;;;;;5034431;28;20112;-73
2022/09/10 04:50:50;;;;;;;5.13;2.97;;;11.10;99.90;;;;;;5034125;28;20029;-73
2022/09/10 04:53:17;;;;;;;4.78;3.25;;;11.10;99.90;;;;;;5034180;28;20108;-73
2022/09/10 04:55:44;;;;;;;3.92;2.75;;;11.10;99.90;;;;;;5034102;28;20022;-74
2022/09/10 04:58:10;;;;;;;4.07;2.75;;;11.10;99.90;;;;;;5034097;28;20470;-73
2022/09/10 05:00:38;;;;;;;3.92;2.40;;;11.00;99.90;;;;;;5034228;28;20473;-74
2022/09/10 05:03:04;;;;;;;4.80;3.13;;;11.00;99.90;;;;;;5033912;28;20060;-74
2022/09/10 05:05:31;;;;;;;3.70;2.35;;;11.00;99.90;;;;;;5032473;28;20124;-73
2022/09/10 05:07:58;;;;;;;3.33;2.33;;;11.00;99.90;;;;;;5033806;28;20470;-74
2022/09/10 05:10:26;;;;;;;4.75;2.90;;;11.00;99.90;;;;;;5033841;28;20029;-74
2022/09/10 05:12:53;;;;;;;3.97;2.58;;;11.00;99.90;;;;;;5034026;28;20017;-74
2022/09/10 05:15:18;;;;;;;3.10;2.25;;;11.00;99.90;;;;;;5033135;28;20366;-74
2022/09/10 05:17:46;;;;;;;2.90;2.10;;;10.90;99.90;;;;;;5034265;28;20040;-74
2022/09/10 05:20:14;;;;;;;2.65;1.77;;;11.00;99.90;;;;;;5033593;28;20029;-74
2022/09/10 05:22:41;;;;;;;2.90;2.13;;;10.90;99.90;;;;;;5033652;28;20103;-74
2022/09/10 05:25:08;;;;;;;3.00;2.15;;;10.90;99.90;;;;;;5033622;28;20025;-74
2022/09/10 05:27:34;;;;;;;2.60;1.70;;;10.90;99.90;;;;;;5034014;28;20032;-74
2022/09/10 05:30:00;;;;;;;2.40;1.60;;;11.00;99.90;;;;;;5033499;28;20025;-74
2022/09/10 05:32:28;;;;;;;2.55;1.88;;;11.00;99.90;;;;;;5033779;28;20066;-74
2022/09/10 05:34:54;;;;;;;3.33;1.92;;;11.00;99.90;;;;;;5033742;28;20544;-74
2022/09/10 05:37:20;;;;;;;2.67;1.70;;;11.00;99.90;;;;;;5030413;28;20030;-73
2022/09/10 05:39:47;;;;;;;3.15;1.85;;;11.00;99.90;;;;;;5032006;28;20032;-74
2022/09/10 05:42:13;;;;;;;2.65;1.60;;;11.10;99.90;;;;;;5033846;28;20022;-74
2022/09/10 05:44:40;;;;;;;3.22;1.50;;;11.10;99.90;;;;;;5031598;28;20091;-73
2022/09/10 05:47:06;;;;;;;2.00;1.40;;;11.20;99.90;;;;;;5032394;28;20037;-74
2022/09/10 05:49:33;;;;;;;2.47;1.38;;;11.20;99.90;;;;;;5033472;28;20029;-74
2022/09/10 05:51:58;;;;;;;2.30;1.58;;;11.30;99.90;;;;;;5031912;28;20029;-74
2022/09/10 05:54:24;;;;;;;2.38;1.52;;;11.30;99.90;;;;;;5033430;28;20030;-74
2022/09/10 05:56:50;;;;;;;2.50;1.85;;;11.30;99.90;;;;;;5033391;28;20022;-74
2022/09/10 05:59:16;;;;;;;2.88;1.95;;;11.30;99.90;;;;;;5032820;28;20167;-74
2022/09/10 06:01:42;;;;;;;2.78;1.95;;;11.30;99.90;;;;;;5033136;28;20045;-74
2022/09/10 06:04:09;;;;;;;3.78;1.92;;;11.30;99.90;;;;;;5033396;28;20034;-74
2022/09/10 06:06:34;;;;;;;2.33;1.63;;;11.30;99.90;;;;;;5033158;28;20084;-74
2022/09/10 06:09:00;;;;;;;3.20;2.20;;;11.30;99.90;;;;;;5033221;28;20029;-74
2022/09/10 06:11:26;;;;;;;3.63;2.00;;;11.30;99.90;;;;;;5033150;28;20037;-74
2022/09/10 06:13:52;;;;;;;5.20;2.10;;;11.30;99.90;;;;;;5033217;28;20036;-74
2022/09/10 06:16:18;;;;;;;2.50;1.70;;;11.30;99.90;;;;;;5033388;28;20112;-74
2022/09/10 06:18:44;;;;;;;2.42;1.58;;;11.20;99.90;;;;;;5034841;28;20057;-75
2022/09/10 06:21:18;;;;;;;2.42;1.73;;;11.30;99.90;;;;;;5036878;28;20537;-74
2022/09/10 06:23:44;;;;;;;2.55;1.88;;;11.30;99.90;;;;;;5037309;28;20056;-74
2022/09/10 06:26:13;;;;;;;3.08;2.08;;;11.30;99.90;;;;;;5035062;28;20060;-74
2022/09/10 06:28:39;;;;;;;4.28;2.17;;;11.40;99.90;;;;;;5037116;28;20029;-74
2022/09/10 06:31:06;;;;;;;3.17;1.65;;;11.40;99.90;;;;;;5034932;28;20474;-74
2022/09/10 06:33:33;;;;;;;2.35;1.52;;;11.50;99.90;;;;;;5036865;28;20029;-74
2022/09/10 06:36:00;;;;;;;1.90;1.33;;;11.60;99.90;;;;;;5030587;28;20092;-74
2022/09/10 06:38:32;;;;;;;2.55;1.63;;;11.60;99.90;;;;;;5036236;28;20103;-74
2022/09/10 06:41:00;;;;;;;2.70;1.60;;;11.60;99.90;;;;;;5035558;28;20536;-74
2022/09/10 06:43:30;;;;;;;2.20;1.13;;;11.70;99.90;;;;;;5036890;28;20033;-74
2022/09/10 06:45:56;;;;;;;2.42;1.00;;;11.80;99.90;;;;;;5035502;28;20029;-74
2022/09/10 06:48:26;;;;;;;2.65;1.20;;;11.90;99.90;;;;;;5034628;28;20029;-74
2022/09/10 06:50:57;;;;;;;3.58;1.60;;;12.00;99.90;;;;;;5031929;28;20132;-74
2022/09/10 06:53:24;;;;;;;3.55;1.63;;;12.00;99.90;;;;;;5036076;28;20029;-74
2022/09/10 06:55:53;;;;;;;2.50;1.40;;;12.10;99.90;;;;;;5035680;28;20022;-74
2022/09/10 06:58:22;;;;;;;2.00;1.08;;;12.10;99.90;;;;;;5036349;28;20060;-74
2022/09/10 07:00:49;;;;;;;2.58;1.08;;;12.20;99.90;;;;;;5034253;28;20436;-74
2022/09/10 07:03:16;;;;;;;2.17;1.27;;;12.20;99.90;;;;;;5035782;28;20029;-74
2022/09/10 07:05:44;;;;;;;2.03;1.10;;;12.20;99.90;;;;;;5034998;28;20029;-74
2022/09/10 07:08:16;;;;;;;2.28;1.15;;;12.20;99.90;;;;;;5036307;28;20025;-74
2022/09/10 07:10:44;;;;;;;2.83;1.30;;;12.20;99.90;;;;;;5036054;28;20056;-74
2022/09/10 07:13:11;;;;;;;3.20;1.63;;;12.30;99.90;;;;;;5036064;28;20025;-72
2022/09/10 07:15:44;;;;;;;1.88;1.20;;;12.30;99.90;;;;;;5036060;28;20518;-72
2022/09/10 07:18:13;;;;;;;1.67;1.00;;;12.40;99.90;;;;;;5036214;28;20033;-72
2022/09/10 07:20:40;;;;;;;1.48;0.77;;;12.40;99.90;;;;;;5036121;28;20041;-72
2022/09/10 07:23:05;;;;;;;4.10;1.00;;;12.50;99.90;;;;;;5034647;28;20030;-72
2022/09/10 07:25:33;;;;;;;1.80;0.95;;;12.50;99.90;;;;;;5035212;28;20160;-73
2022/09/10 07:28:00;;;;;;;3.33;1.55;;;12.50;99.90;;;;;;5035758;28;20025;-74
2022/09/10 07:30:28;;;;;;;2.63;1.20;;;12.50;99.90;;;;;;5035225;28;20152;-73
2022/09/10 07:32:54;;;;;;;3.65;1.65;;;12.50;99.90;;;;;;5035656;28;20068;-74
2022/09/10 07:35:20;;;;;;;4.03;1.63;;;12.50;99.90;;;;;;5035958;28;20026;-74
2022/09/10 07:37:45;;;;;;;2.90;1.58;;;12.60;99.90;;;;;;5034410;28;20036;-74
2022/09/10 07:40:12;;;;;;;3.83;1.60;;;12.60;99.90;;;;;;5035513;28;20029;-73
2022/09/10 07:42:38;;;;;;;1.98;1.30;;;12.60;99.90;;;;;;5035564;28;20061;-74
2022/09/10 07:45:04;;;;;;;2.20;1.60;;;12.70;99.90;;;;;;5035775;28;20075;-74
2022/09/10 07:47:32;;;;;;;2.80;1.73;;;12.80;99.90;;;;;;5035705;28;20385;-74
2022/09/10 07:49:58;;;;;;;2.42;1.60;;;12.80;99.90;;;;;;5035755;28;20052;-74
2022/09/10 07:52:24;;;;;;;3.78;1.95;;;12.90;99.90;;;;;;5035310;28;20497;-73
2022/09/10 07:54:50;;;;;;;2.97;1.60;;;12.90;99.90;;;;;;5034039;28;20030;-74
2022/09/10 07:57:16;;;;;;;4.18;1.50;;;12.90;99.90;;;;;;5035294;28;20025;-73
2022/09/10 07:59:41;;;;;;;2.30;1.25;;;12.90;99.90;;;;;;5035211;28;20430;-74
2022/09/10 08:02:12;;;;;;;1.65;1.05;;;12.90;99.90;;;;;;5035125;28;20116;-73
2022/09/10 08:04:38;;;;;;;1.52;0.88;;;13.00;99.90;;;;;;5033877;28;20075;-73
2022/09/10 08:07:04;;;;;;;2.75;1.50;;;13.00;99.90;;;;;;5035129;28;20436;-73
2022/09/10 08:09:29;;;;;;;2.35;1.33;;;13.10;99.90;;;;;;5035480;28;20526;-73
2022/09/10 08:11:55;;;;;;;3.55;1.67;;;13.20;99.90;;;;;;5033754;28;20025;-73
2022/09/10 08:14:21;;;;;;;3.75;2.42;;;13.30;99.90;;;;;;5035308;28;20381;-73
2022/09/10 08:16:47;;;;;;;5.35;2.42;;;13.40;99.90;;;;;;5034934;28;20025;-73
2022/09/10 08:19:14;;;;;;;3.25;2.20;;;13.50;99.90;;;;;;5034815;28;20026;-74
2022/09/10 08:21:40;;;;;;;3.45;2.35;;;13.50;99.90;;;;;;5033459;28;20034;-74
2022/09/10 08:24:07;;;;;;;5.72;2.75;;;13.50;99.90;;;;;;5034728;28;20390;-73
2022/09/10 08:26:33;;;;;;;3.92;2.13;;;13.60;99.90;;;;;;5034732;28;20553;-74
2022/09/10 08:29:01;;;;;;;4.00;2.30;;;13.60;99.90;;;;;;5034907;28;20116;-72
2022/09/10 08:31:27;;;;;;;5.68;2.47;;;13.50;99.90;;;;;;5017281;28;20026;-72
2022/09/10 08:33:54;;;;;;;3.80;2.50;;;13.50;99.90;;;;;;5034817;28;20196;-73
2022/09/10 08:36:20;;;;;;;3.53;1.80;;;13.50;99.90;;;;;;5035032;28;20049;-72
2022/09/10 08:38:47;;;;;;;2.85;1.73;;;13.50;99.90;;;;;;5035012;28;20026;-72
2022/09/10 08:41:34;;;;;;;1.90;1.20;;;13.60;99.90;;;;;;5033679;28;20029;-72
2022/09/10 08:44:27;;;;;;;2.53;1.45;;;13.70;99.90;;;;;;5034649;28;20060;-72
2022/09/10 08:47:09;;;;;;;2.92;1.70;;;13.80;99.90;;;;;;5034260;28;20029;-72
2022/09/10 08:49:34;;;;;;;;;;;13.90;99.90;;;;;;5033351;28;20083;-72
2022/09/10 08:52:21;;;;;;;8.43;3.00;;;14.00;99.90;;;;;;5034247;28;19905;-72
2022/09/10 08:54:59;;;;;;;3.90;2.10;;;14.20;99.90;;;;;;5032932;28;20052;-72
2022/09/10 08:57:46;;;;;;;3.88;1.65;;;14.20;99.90;;;;;;5032874;28;20028;-72
2022/09/10 09:00:16;;;;;;;4.95;2.40;;;14.40;99.90;;;;;;5033959;28;20100;-72
2022/09/10 09:02:55;;;;;;;3.30;1.90;;;14.40;99.90;;;;;;5034490;28;20434;-72
2022/09/10 09:05:22;;;;;;;3.15;2.15;;;14.40;99.90;;;;;;5033948;28;20018;-72
2022/09/10 09:07:50;;;;;;;3.38;2.25;;;14.50;99.90;;;;;;5033852;28;20385;-72
2022/09/10 09:10:30;;;;;;;4.50;2.15;;;14.60;99.90;;;;;;5033863;28;20048;-72
2022/09/10 09:13:17;;;;;;;3.15;2.17;;;14.60;99.90;;;;;;5033808;28;20474;-72
2022/09/10 09:16:07;;;;;;;4.97;2.08;;;14.60;99.90;;;;;;5033738;28;20032;-72
2022/09/10 09:18:46;;;;;;;3.15;1.77;;;14.50;99.90;;;;;;5033964;28;20351;-72
2022/09/10 09:21:17;;;;;;;2.90;2.10;;;14.50;99.90;;;;;;5033914;28;20045;-72
2022/09/10 09:23:54;;;;;;;2.70;1.52;;;14.60;99.90;;;;;;5034178;28;20021;-72
2022/09/10 09:26:19;;;;;;;2.88;1.65;;;14.60;99.90;;;;;;5033884;28;20033;-72
2022/09/10 09:29:05;;;;;;;3.45;1.40;;;14.60;99.90;;;;;;5033501;28;20030;-72
2022/09/10 09:31:41;;;;;;;1.67;1.00;;;14.50;99.90;;;;;;5033744;28;20022;-72
2022/09/10 09:34:18;;;;;;;3.00;1.23;;;14.50;99.90;;;;;;5033517;28;20017;-72
2022/09/10 09:36:50;;;;;;;3.08;1.13;;;14.60;99.90;;;;;;5034012;28;20029;-72
2022/09/10 09:39:29;;;;;;;3.05;1.10;;;14.60;99.90;;;;;;5033701;28;20497;-72
2022/09/10 09:42:37;;;;;;;2.10;0.70;;;14.60;99.90;;;;;;5033567;28;20075;-72
2022/09/10 09:45:28;;;;;;;1.38;0.70;;;14.60;99.90;;;;;;5033279;28;20036;-73
2022/09/10 09:47:54;;;;;;;2.15;0.60;;;14.70;99.90;;;;;;5033237;28;20030;-73
2022/09/10 09:50:21;;;;;;;1.73;0.70;;;14.80;99.90;;;;;;5033483;28;20029;-72
2022/09/10 09:52:51;;;;;;;1.15;0.60;;;14.80;99.90;;;;;;5033040;28;20026;-73
2022/09/10 09:55:46;;;;;;;1.55;0.80;;;15.00;99.90;;;;;;5033208;28;20022;-72
2022/09/10 09:58:20;;;;;;;1.70;0.90;;;15.10;99.90;;;;;;5032802;28;20037;-73
2022/09/10 10:00:49;;;;;;;1.90;1.10;;;15.10;99.90;;;;;;5033430;28;20466;-73
2022/09/10 10:03:24;;;;;;;2.28;0.80;;;15.20;99.90;;;;;;5033140;28;20044;-73
2022/09/10 10:05:59;;;;;;;1.77;1.10;;;15.30;99.90;;;;;;5033147;28;20401;-72
2022/09/10 10:08:33;;;;;;;2.03;0.80;;;15.60;99.90;;;;;;5033552;28;20033;-72
2022/09/10 10:10:59;;;;;;;2.05;0.50;;;15.90;99.90;;;;;;5032918;28;20024;-72
2022/09/10 10:13:37;;;;;;;3.05;0.80;;;16.00;99.90;;;;;;5032030;28;20022;-73
2022/09/10 10:16:32;;;;;;;1.52;0.80;;;16.00;99.90;;;;;;5033286;28;20018;-73
2022/09/10 10:18:58;;;;;;;1.45;0.75;;;16.00;99.90;;;;;;5033247;28;20040;-73
2022/09/10 10:21:30;;;;;;;3.90;0.93;;;16.00;99.90;;;;;;5033126;28;20026;-72
2022/09/10 10:23:57;;;;;;;1.30;0.90;;;16.00;99.90;;;;;;5032952;28;20496;-73
2022/09/10 10:26:31;;;;;;;2.13;0.90;;;16.10;99.90;;;;;;5032900;28;20056;-73
2022/09/10 10:29:15;;;;;;;1.73;0.70;;;16.10;99.90;;;;;;5033123;28;20106;-73
2022/09/10 10:31:44;;;;;;;1.80;0.80;;;16.30;99.90;;;;;;5032910;28;20032;-72
2022/09/10 10:34:37;;;;;;;1.20;0.70;;;16.30;99.90;;;;;;5033174;28;20017;-73
2022/09/10 10:37:50;;;;;;;1.92;0.90;;;16.30;99.90;;;;;;5033215;28;20025;-72
2022/09/10 10:40:30;;;;;;;1.67;0.80;;;16.40;99.90;;;;;;5032274;28;20490;-73
2022/09/10 10:43:15;;;;;;;1.48;0.77;;;16.50;99.90;;;;;;5031548;28;20034;-73
2022/09/10 10:46:03;;;;;;;1.45;0.70;;;16.50;99.90;;;;;;5032748;28;20026;-73
2022/09/10 10:48:35;;;;;;;1.23;0.70;;;16.50;99.90;;;;;;5032948;28;20021;-73
2022/09/10 10:51:16;;;;;;;2.03;0.70;;;16.50;99.90;;;;;;5033062;28;20195;-72
2022/09/10 10:53:55;;;;;;;1.88;0.60;;;16.60;99.90;;;;;;5032681;28;20024;-73
2022/09/10 10:56:34;;;;;;;2.13;0.65;;;16.50;99.90;;;;;;5033224;28;20097;-73
2022/09/10 10:59:22;;;;;;;1.02;0.63;;;16.50;99.90;;;;;;5031382;28;20029;-73
2022/09/10 11:01:58;;;;;;;1.25;0.60;;;16.60;99.90;;;;;;5032574;28;20038;-73
2022/09/10 11:04:38;;;;;;;1.70;0.70;;;16.60;99.90;;;;;;5033727;28;20021;-73
2022/09/10 11:07:13;;;;;;;2.33;0.75;;;16.60;99.90;;;;;;5036237;28;20028;-73
2022/09/10 11:09:45;;;;;;;1.02;0.68;;;16.50;99.90;;;;;;5036143;28;20076;-73
2022/09/10 11:12:32;;;;;;;1.52;0.65;;;16.40;99.90;;;;;;5036079;28;20025;-72
2022/09/10 11:15:17;;;;;;;1.33;0.70;;;16.40;99.90;;;;;;5036070;28;20018;-71
2022/09/10 11:17:50;;;;;;;1.15;0.60;;;16.20;99.90;;;;;;5036566;28;20014;-73
2022/09/10 11:20:55;;;;;;;1.33;0.70;;;16.10;99.90;;;;;;5036157;28;20109;-73
2022/09/10 11:23:32;;;;;;;6.75;3.97;;;16.00;99.90;;;;;;5035774;28;20017;-73
2022/09/10 11:26:13;;;;;;;2.75;1.40;;;15.90;99.90;;;;;;5036309;28;20409;-73
2022/09/10 11:28:46;;;;;;;1.53;0.80;;;15.90;99.90;;;;;;5036003;28;20025;-73
2022/09/10 11:31:29;;;;;;;1.73;0.70;;;15.80;99.90;;;;;;5035675;28;20087;-73
2022/09/10 11:34:11;;;;;;;2.53;0.50;;;15.80;99.90;;;;;;5036000;28;20021;-73
2022/09/10 11:36:54;;;;;;;1.08;0.50;;;15.70;99.90;;;;;;5036422;28;20347;-73
2022/09/10 11:39:30;;;;;;;0.68;0.30;;;15.70;99.90;;;;;;5036081;28;20026;-73
2022/09/10 11:42:00;;;;;;;1.75;0.40;;;15.60;99.90;;;;;;5035433;28;20026;-73
2022/09/10 11:44:33;;;;;;;0.80;0.38;;;15.50;99.90;;;;;;5035493;28;20050;-73
2022/09/10 11:47:31;;;;;;;1.17;0.30;;;15.40;99.90;;;;;;5035498;28;20505;-73
2022/09/10 11:50:24;;;;;;;0.80;0.40;;;15.20;99.90;;;;;;5035278;28;20052;-71
2022/09/10 11:52:52;;;;;;;1.55;0.40;;;15.20;99.90;;;;;;5035577;28;20021;-71
2022/09/10 11:55:20;;;;;;;2.47;0.50;;;15.10;99.90;;;;;;5035220;28;20049;-71
2022/09/10 11:58:18;;;;;;;0.95;0.40;;;15.10;99.90;;;;;;5035191;28;20105;-71
2022/09/10 12:01:09;;;;;;;1.00;0.50;;;15.00;99.90;;;;;;5034368;28;20037;-72
2022/09/10 12:03:41;;;;;;;2.95;0.63;;;15.00;99.90;;;;;;5035484;28;20022;-71
2022/09/10 12:06:35;;;;;;;3.72;0.90;;;14.90;99.90;;;;;;5035126;28;20072;-71
2022/09/10 12:09:37;;;;;;;2.70;0.30;;;14.80;99.90;;;;;;5034950;28;20033;-72
2022/09/10 12:12:25;;;;;;;0.60;0.40;;;14.60;99.90;;;;;;5035109;28;20453;-71
2022/09/10 12:14:51;;;;;;;0.73;0.50;;;14.50;99.90;;;;;;5035193;28;20053;-71
2022/09/10 12:17:26;;;;;;;0.82;0.43;;;14.50;99.90;;;;;;5033042;28;20061;-71
2022/09/10 12:19:55;;;;;;;1.88;0.50;;;14.40;99.90;;;;;;5035384;28;20045;-71
2022/09/10 12:22:30;;;;;;;1.10;0.55;;;14.40;99.90;;;;;;5034946;28;20060;-71
2022/09/10 12:25:01;;;;;;;1.38;0.60;;;14.30;99.90;;;;;;5035260;28;20026;-70
2022/09/10 12:27:48;;;;;;;0.93;0.50;;;14.30;99.90;;;;;;5034962;28;20032;-70
2022/09/10 12:30:38;;;;;;;1.50;0.70;;;14.30;99.90;;;;;;5034948;28;20053;-70
2022/09/10 12:33:28;;;;;;;2.13;0.93;;;14.30;99.90;;;;;;5030278;28;20026;-70
2022/09/10 12:35:53;;;;;;;3.60;0.90;;;14.30;99.90;;;;;;5032860;28;20022;-70
2022/09/10 12:38:56;;;;;;;1.52;0.60;;;14.30;99.90;;;;;;5034772;28;20251;-70
2022/09/10 12:41:22;;;;;;;0.90;0.60;;;14.40;99.90;;;;;;5034679;28;20034;-70
2022/09/10 12:43:48;;;;;;;1.65;1.00;;;14.50;99.90;;;;;;5034604;28;20477;-70
2022/09/10 12:46:13;;;;;;;2.25;0.90;;;14.60;99.90;;;;;;5034581;28;20108;-70
2022/09/10 12:49:05;;;;;;;1.00;0.50;;;14.60;99.90;;;;;;5033949;28;20037;-70
2022/09/10 12:51:42;;;;;;;3.95;0.80;;;14.70;99.90;;;;;;5007987;28;20045;-70
2022/09/10 12:54:11;;;;;;;2.22;0.40;;;14.70;99.90;;;;;;5014119;28;20072;-70
2022/09/10 12:57:11;;;;;;;0.75;0.40;;;14.70;99.90;;;;;;5014324;28;20503;-71
2022/09/10 13:00:11;;;;;;;3.57;2.07;;;14.90;99.90;;;;;;5013970;28;20026;-70
2022/09/10 13:03:01;;;;;;;2.10;1.10;;;15.00;99.90;;;;;;5013938;28;20067;-71
2022/09/10 13:05:49;;;;;;;2.50;0.60;;;15.20;99.90;;;;;;5014588;28;20029;-70
2022/09/10 13:08:15;;;;;;;1.13;0.40;;;15.30;99.90;;;;;;5014396;28;20060;-71
2022/09/10 13:11:12;;;;;;;0.90;0.45;;;15.30;99.90;;;;;;5014039;28;20057;-71
2022/09/10 13:13:53;;;;;;;1.88;0.70;;;15.30;99.90;;;;;;5013608;28;20030;-71